Strona główna
METAR-TAF:

METAR-TAF

Lotnisko :

Chièvres, Belgia

Szerokość geograficzna: 50-34N, Długość geograficzna: 003-50E, wysokość: 60 m

Aktualna obserwacja pogody

Raport powstał 44 minut temu, godzina 00:25 UTC
Wiatr 5 kt od wschodnio-południowy wschód
Temperatura 20°C
Wilgotność 73%
Ciśnienie 1015 hPa
Widzialność 10 km lub więcej

METAR: EBCV 240025Z AUTO 11005KT 9999 NCD 20/15 Q1015 BLU

czas: 03:09 (01:09 UTC)

Prognoza

Raport powstał 9 godziny i 28 minut temu, godzina 15:41 UTC
Prognoza ważna od 23 godzina 19 UTC do 24 godzina 07 UTC
Wiatr 5 kt od południowy wschód
Widzialność 10 km lub więcej
Mało chmury na wysokości 30000 ft

TAF: EBCV 231541Z 2319/2407 13005KT 9999 FEW300 BY EBWM

Obserwacja i prognoza pogody dla ponad 4000 lotnisk (raport METAR i TAF).

Dostępne stacje oznaczono żółtymi i czerwonymi punktami na mapie.

Najedź kursorem aby zobaczyć nazwę stacji.

Kliknij aby zobaczyć obserwacje i prognozy pogody.

Aby zmienić mapę: kliknij na zielony przycisk z czarnym krzyżykiem, aby powiększyć; na zielony przycisk z myślnikiem, aby pomniejszyć; na zielone strzałki, aby przejść do map sąsiednich.


METAR-TAF: